Time;durP1;ratioP1;P1;durP2;ratioP2;P2;SDS_P1;SDS_P2;PMS_P1;PMS_P2;Temp;Humidity;BMP_temperature;BMP_pressure;BME280_temperature;BME280_humidity;BME280_pressure;Samples;Min_cycle;Max_cycle;Signal;HPM_P1;HPM_P2
2021/12/24 00:00:28;;;;;;;36.03;11.50;;;;;;;;;;4873336;29;20047;-81
2021/12/24 00:02:56;;;;;;;39.30;12.82;;;;;;;;;;4875117;29;20047;-82
2021/12/24 00:05:22;;;;;;;46.53;14.80;;;;;;;;;;4874877;29;20032;-82
2021/12/24 00:07:49;;;;;;;34.95;12.35;;;;;;;;;;4872952;29;20041;-81
2021/12/24 00:10:15;;;;;;;48.53;14.70;;;;;;;;;;4877237;29;20036;-82
2021/12/24 00:12:47;;;;;;;44.53;11.75;;;;;;;;;;4875731;29;20064;-81
2021/12/24 00:15:34;;;;;;;24.92;9.10;;;;;;;;;;4889630;29;20039;-81
2021/12/24 00:18:10;;;;;;;34.55;12.48;;;;;;;;;;4888271;29;20036;-81
2021/12/24 00:36:30;;;;;;;28.95;9.32;;;;;;;;;;4888534;29;20043;-82
2021/12/24 00:38:57;;;;;;;28.02;10.80;;;;;;;;;;4873668;29;20533;-82
2021/12/24 00:41:23;;;;;;;38.45;12.07;;;;;;;;;;4887201;29;20039;-81
2021/12/24 00:43:49;;;;;;;21.50;9.00;;;;;;;;;;4884020;29;20032;-81
2021/12/24 00:46:15;;;;;;;36.72;10.63;;;;;;;;;;4873882;28;20038;-81
2021/12/24 00:48:41;;;;;;;22.35;9.32;;;;;;;;;;4887161;29;20039;-81
2021/12/24 00:51:20;;;;;;;31.85;10.60;;;;;;;;;;4886632;29;20761;-81
2021/12/24 00:56:13;;;;;;;26.55;8.95;;;;;;;;;;4890171;29;20041;-81
2021/12/24 00:58:40;;;;;;;25.05;8.52;;;;;;;;;;4872948;29;20028;-80
2021/12/24 01:01:07;;;;;;;27.48;8.20;;;;;;;;;;4871809;29;20037;-81
2021/12/24 01:03:33;;;;;;;23.75;8.48;;;;;;;;;;4874206;29;20525;-81
2021/12/24 01:05:59;;;;;;;19.65;7.93;;;;;;;;;;4874900;29;20032;-80
2021/12/24 01:08:26;;;;;;;29.88;8.95;;;;;;;;;;4887956;29;20287;-81
2021/12/24 01:10:54;;;;;;;34.13;10.73;;;;;;;;;;4872135;29;20037;-80
2021/12/24 01:13:20;;;;;;;21.67;8.30;;;;;;;;;;4871374;29;20925;-81
2021/12/24 01:15:56;;;;;;;27.42;8.82;;;;;;;;;;4885718;29;20556;-80
2021/12/24 01:23:49;;;;;;;21.88;7.82;;;;;;;;;;4886785;29;20036;-81
2021/12/24 01:26:45;;;;;;;17.40;6.75;;;;;;;;;;4874016;29;20091;-80
2021/12/24 01:42:41;;;;;;;16.50;5.95;;;;;;;;;;4886607;29;20036;-81
2021/12/24 01:45:14;;;;;;;18.17;6.10;;;;;;;;;;4873799;29;20033;-80
2021/12/24 01:47:40;;;;;;;15.68;5.75;;;;;;;;;;4888148;28;20053;-80
2021/12/24 01:50:06;;;;;;;14.73;5.85;;;;;;;;;;4873276;29;20036;-80
2021/12/24 01:52:32;;;;;;;13.98;5.20;;;;;;;;;;4873100;29;20615;-81
2021/12/24 01:54:58;;;;;;;10.25;4.03;;;;;;;;;;4870006;29;20037;-80
2021/12/24 01:57:24;;;;;;;16.80;5.10;;;;;;;;;;4888680;29;20511;-81
2021/12/24 01:59:50;;;;;;;14.65;6.63;;;;;;;;;;4870320;29;20119;-80
2021/12/24 02:02:16;;;;;;;10.43;5.47;;;;;;;;;;4888068;29;20231;-80
2021/12/24 02:04:42;;;;;;;8.98;4.28;;;;;;;;;;4867178;29;21768;-80
2021/12/24 02:07:08;;;;;;;7.50;2.50;;;;;;;;;;4879656;29;20595;-80
2021/12/24 02:09:34;;;;;;;7.05;3.65;;;;;;;;;;4881791;29;20076;-81
2021/12/24 02:12:01;;;;;;;8.43;3.67;;;;;;;;;;4869129;29;20373;-80
2021/12/24 02:14:34;;;;;;;9.38;3.85;;;;;;;;;;4885718;29;20036;-81
2021/12/24 02:30:29;;;;;;;11.60;4.90;;;;;;;;;;4883647;29;20048;-81
2021/12/24 02:32:55;;;;;;;6.45;3.15;;;;;;;;;;4890260;29;20037;-81
2021/12/24 02:35:21;;;;;;;8.60;3.60;;;;;;;;;;4869112;29;20036;-81
2021/12/24 02:37:49;;;;;;;12.65;4.28;;;;;;;;;;4882974;29;20037;-81
2021/12/24 02:40:15;;;;;;;6.47;2.78;;;;;;;;;;4866249;29;20869;-81
2021/12/24 02:42:48;;;;;;;9.80;4.20;;;;;;;;;;4884628;29;20039;-81
2021/12/24 02:45:14;;;;;;;14.05;4.82;;;;;;;;;;4886017;29;20032;-81
2021/12/24 02:56:05;;;;;;;15.95;4.25;;;;;;;;;;4887482;29;20171;-81
2021/12/24 02:58:42;;;;;;;18.92;5.20;;;;;;;;;;4872390;29;20021;-81
2021/12/24 03:01:08;;;;;;;15.80;5.00;;;;;;;;;;4885586;29;20089;-81
2021/12/24 03:03:34;;;;;;;16.90;5.28;;;;;;;;;;4866436;29;20041;-81
2021/12/24 03:06:01;;;;;;;20.35;5.30;;;;;;;;;;4870354;29;20104;-81
2021/12/24 03:08:27;;;;;;;18.45;5.35;;;;;;;;;;4884910;29;20036;-81
2021/12/24 03:10:55;;;;;;;16.20;5.07;;;;;;;;;;4868721;29;20076;-81
2021/12/24 03:13:21;;;;;;;14.40;4.97;;;;;;;;;;4872324;29;20221;-81
2021/12/24 03:15:50;;;;;;;21.27;6.20;;;;;;;;;;4871918;29;20036;-81
2021/12/24 03:18:23;;;;;;;21.92;5.95;;;;;;;;;;4868364;29;20025;-82
2021/12/24 03:20:56;;;;;;;21.33;5.85;;;;;;;;;;4883846;29;20157;-81
2021/12/24 03:23:32;;;;;;;24.90;7.75;;;;;;;;;;4871202;29;20032;-81
2021/12/24 03:25:58;;;;;;;24.35;7.70;;;;;;;;;;4881977;29;20032;-81
2021/12/24 03:28:24;;;;;;;43.58;10.18;;;;;;;;;;4883921;29;20040;-81
2021/12/24 03:30:50;;;;;;;30.02;8.15;;;;;;;;;;4871272;29;20044;-82
2021/12/24 03:33:16;;;;;;;35.80;8.27;;;;;;;;;;4871128;29;20037;-81
2021/12/24 03:35:42;;;;;;;34.67;8.73;;;;;;;;;;4871320;29;20040;-81
2021/12/24 03:38:08;;;;;;;34.92;9.50;;;;;;;;;;4872907;29;20028;-81
2021/12/24 03:40:34;;;;;;;39.30;10.48;;;;;;;;;;4871672;29;20059;-82
2021/12/24 03:43:00;;;;;;;50.85;11.30;;;;;;;;;;4884260;29;20025;-81
2021/12/24 03:45:28;;;;;;;56.55;11.82;;;;;;;;;;4884899;29;20040;-81
2021/12/24 03:48:00;;;;;;;41.83;9.38;;;;;;;;;;4871610;28;20103;-81
2021/12/24 03:50:40;;;;;;;50.75;11.07;;;;;;;;;;4870357;29;20033;-82
2021/12/24 03:54:55;;;;;;;67.35;13.77;;;;;;;;;;4871970;29;20036;-81
2021/12/24 03:55:52;;;;;;;40.42;9.02;;;;;;;;;;4885656;29;20078;-81
2021/12/24 03:58:19;;;;;;;44.35;9.27;;;;;;;;;;4867508;29;20036;-81
2021/12/24 04:00:45;;;;;;;53.90;11.38;;;;;;;;;;4872033;29;20057;-81
2021/12/24 04:03:11;;;;;;;52.65;10.88;;;;;;;;;;4882125;29;20085;-81
2021/12/24 04:05:37;;;;;;;74.40;11.23;;;;;;;;;;4886901;29;20476;-82
2021/12/24 04:08:03;;;;;;;50.55;10.90;;;;;;;;;;4866717;29;20028;-81
2021/12/24 04:13:04;;;;;;;70.67;10.57;;;;;;;;;;4884041;29;20036;-81
2021/12/24 04:15:30;;;;;;;56.83;10.55;;;;;;;;;;4884471;29;20289;-81
2021/12/24 04:17:57;;;;;;;50.90;10.82;;;;;;;;;;4877869;29;20124;-81
2021/12/24 04:25:53;;;;;;;39.20;9.27;;;;;;;;;;4887542;29;20334;-81
2021/12/24 04:28:20;;;;;;;28.00;7.93;;;;;;;;;;4873897;29;20040;-81
2021/12/24 04:30:50;;;;;;;65.10;12.70;;;;;;;;;;4890255;29;20172;-81
2021/12/24 04:33:29;;;;;;;59.17;12.30;;;;;;;;;;4876292;29;20040;-82
2021/12/24 04:35:59;;;;;;;66.72;14.50;;;;;;;;;;4890040;29;20121;-81
2021/12/24 04:38:38;;;;;;;43.83;10.70;;;;;;;;;;4870612;29;20061;-81
2021/12/24 04:52:15;;;;;;;57.17;11.60;;;;;;;;;;4905138;29;20121;-81
2021/12/24 05:03:02;;;;;;;47.42;11.23;;;;;;;;;;4901203;29;20067;-81
2021/12/24 05:05:44;;;;;;;45.08;12.00;;;;;;;;;;4903014;29;20028;-81
2021/12/24 05:08:18;;;;;;;62.53;15.73;;;;;;;;;;4887963;29;20063;-81
2021/12/24 05:10:44;;;;;;;49.17;12.85;;;;;;;;;;4888086;29;20496;-82
2021/12/24 05:13:11;;;;;;;92.80;20.20;;;;;;;;;;4888381;29;20425;-81
2021/12/24 05:15:40;;;;;;;72.53;15.35;;;;;;;;;;4892993;29;20036;-81
2021/12/24 05:18:31;;;;;;;55.03;14.35;;;;;;;;;;4889232;29;20020;-82
2021/12/24 05:23:41;;;;;;;38.67;10.80;;;;;;;;;;4906405;29;20452;-81
2021/12/24 05:26:07;;;;;;;50.22;11.27;;;;;;;;;;4890518;29;20622;-81
2021/12/24 05:28:34;;;;;;;45.90;13.88;;;;;;;;;;4890231;29;20435;-81
2021/12/24 05:31:00;;;;;;;69.30;17.48;;;;;;;;;;4902446;29;20047;-82
2021/12/24 05:33:29;;;;;;;68.38;16.35;;;;;;;;;;4906279;29;20020;-82
2021/12/24 05:35:55;;;;;;;73.28;19.58;;;;;;;;;;4887222;29;20127;-82
2021/12/24 05:38:30;;;;;;;70.20;15.27;;;;;;;;;;4891019;29;20044;-81
2021/12/24 05:40:56;;;;;;;77.15;19.30;;;;;;;;;;4902697;29;20361;-82
2021/12/24 05:43:22;;;;;;;86.70;22.58;;;;;;;;;;4889869;29;20127;-82
2021/12/24 05:45:49;;;;;;;62.28;15.32;;;;;;;;;;4889720;29;20505;-81
2021/12/24 05:48:15;;;;;;;61.17;16.40;;;;;;;;;;4876225;28;20054;-82
2021/12/24 05:50:41;;;;;;;90.43;19.38;;;;;;;;;;4871828;29;20037;-81
2021/12/24 05:53:07;;;;;;;70.93;16.88;;;;;;;;;;4871495;29;20029;-81
2021/12/24 05:55:33;;;;;;;56.08;14.18;;;;;;;;;;4871956;29;20519;-81
2021/12/24 05:58:00;;;;;;;92.00;20.10;;;;;;;;;;4868885;29;20036;-81
2021/12/24 06:00:26;;;;;;;62.22;17.02;;;;;;;;;;4873940;29;20025;-81
2021/12/24 06:02:52;;;;;;;51.38;9.73;;;;;;;;;;4873803;29;20036;-81
2021/12/24 06:05:18;;;;;;;71.95;15.55;;;;;;;;;;4870762;29;20343;-81
2021/12/24 06:07:44;;;;;;;62.75;15.43;;;;;;;;;;4871173;29;20501;-82
2021/12/24 06:10:11;;;;;;;61.28;10.52;;;;;;;;;;4870844;29;20100;-82
2021/12/24 06:12:37;;;;;;;69.40;16.05;;;;;;;;;;4872695;29;20028;-81
2021/12/24 06:15:06;;;;;;;66.50;13.05;;;;;;;;;;4871777;29;20556;-81
2021/12/24 06:17:33;;;;;;;66.38;13.82;;;;;;;;;;4870480;29;20032;-82
2021/12/24 06:19:59;;;;;;;56.65;12.98;;;;;;;;;;4887042;29;20033;-81
2021/12/24 06:22:25;;;;;;;60.05;13.13;;;;;;;;;;4887829;29;20036;-81
2021/12/24 06:24:51;;;;;;;51.53;11.55;;;;;;;;;;4885523;29;20032;-81
2021/12/24 06:27:17;;;;;;;44.33;10.90;;;;;;;;;;4866587;29;20040;-81
2021/12/24 06:29:43;;;;;;;49.42;12.50;;;;;;;;;;4874263;29;20191;-81
2021/12/24 06:32:09;;;;;;;43.28;11.10;;;;;;;;;;4871780;29;20037;-82
2021/12/24 06:34:35;;;;;;;39.58;9.63;;;;;;;;;;4884813;29;20042;-81
2021/12/24 06:37:02;;;;;;;61.20;11.70;;;;;;;;;;4882124;29;20032;-80
2021/12/24 06:39:28;;;;;;;30.50;6.95;;;;;;;;;;4868951;29;20033;-81
2021/12/24 06:41:54;;;;;;;17.13;5.95;;;;;;;;;;4886079;29;20119;-80
2021/12/24 06:44:21;;;;;;;62.15;9.88;;;;;;;;;;4889279;29;20512;-81
2021/12/24 06:46:47;;;;;;;50.85;11.18;;;;;;;;;;4871356;28;20070;-81
2021/12/24 06:49:13;;;;;;;50.60;11.30;;;;;;;;;;4888388;29;20489;-81
2021/12/24 06:51:39;;;;;;;41.28;6.88;;;;;;;;;;4867294;29;20294;-81
2021/12/24 06:54:05;;;;;;;22.30;5.60;;;;;;;;;;4887043;29;20396;-80
2021/12/24 06:56:32;;;;;;;25.95;5.30;;;;;;;;;;4870530;29;20067;-81
2021/12/24 06:58:58;;;;;;;37.30;8.38;;;;;;;;;;4883939;29;20088;-81
2021/12/24 07:01:24;;;;;;;48.03;9.50;;;;;;;;;;4884000;29;20091;-81
2021/12/24 07:03:50;;;;;;;46.92;8.50;;;;;;;;;;4882121;29;20107;-81
2021/12/24 07:06:16;;;;;;;46.28;6.85;;;;;;;;;;4881588;29;20572;-80
2021/12/24 07:08:42;;;;;;;28.15;8.43;;;;;;;;;;4869854;29;20051;-81
2021/12/24 07:11:08;;;;;;;43.85;8.80;;;;;;;;;;4886669;29;20037;-80
2021/12/24 07:13:34;;;;;;;39.35;8.48;;;;;;;;;;4872086;29;20040;-82
2021/12/24 07:16:00;;;;;;;39.72;10.18;;;;;;;;;;4867283;29;20033;-81
2021/12/24 07:18:26;;;;;;;50.00;10.35;;;;;;;;;;4870746;29;20047;-81
2021/12/24 07:20:52;;;;;;;36.80;8.80;;;;;;;;;;4863905;29;20108;-82
2021/12/24 07:23:18;;;;;;;46.20;11.82;;;;;;;;;;4867177;29;20029;-81
2021/12/24 07:25:46;;;;;;;49.83;10.77;;;;;;;;;;4870398;29;20097;-82
2021/12/24 07:28:12;;;;;;;63.10;11.48;;;;;;;;;;4870950;29;20033;-81
2021/12/24 07:30:38;;;;;;;32.75;8.63;;;;;;;;;;4870374;29;20553;-81
2021/12/24 07:33:04;;;;;;;25.13;6.15;;;;;;;;;;4884202;29;20036;-81
2021/12/24 07:35:30;;;;;;;32.33;7.30;;;;;;;;;;4873015;29;20036;-81
2021/12/24 07:37:56;;;;;;;42.50;8.95;;;;;;;;;;4866568;29;20033;-81
2021/12/24 07:40:25;;;;;;;43.85;8.65;;;;;;;;;;4881812;29;20040;-81
2021/12/24 07:42:58;;;;;;;35.53;8.45;;;;;;;;;;4886182;29;20028;-81
2021/12/24 07:45:24;;;;;;;44.03;8.23;;;;;;;;;;4867379;29;20067;-80
2021/12/24 07:48:10;;;;;;;51.90;9.75;;;;;;;;;;4875094;29;20049;-81
2021/12/24 07:53:14;;;;;;;49.17;8.95;;;;;;;;;;4886903;29;20037;-81
2021/12/24 07:55:40;;;;;;;37.28;8.73;;;;;;;;;;4877592;29;20695;-81
2021/12/24 07:58:07;;;;;;;41.13;9.73;;;;;;;;;;4871428;29;20482;-80
2021/12/24 08:00:34;;;;;;;48.35;11.48;;;;;;;;;;4868422;29;20036;-82
2021/12/24 08:03:02;;;;;;;45.75;10.27;;;;;;;;;;4868394;29;20048;-81
2021/12/24 08:05:28;;;;;;;34.33;8.35;;;;;;;;;;4888691;29;20032;-80
2021/12/24 08:07:55;;;;;;;24.58;5.68;;;;;;;;;;4871444;29;20041;-80
2021/12/24 08:10:24;;;;;;;42.65;9.63;;;;;;;;;;4875149;29;20410;-81
2021/12/24 08:12:50;;;;;;;36.70;7.55;;;;;;;;;;4867892;29;20041;-80
2021/12/24 08:15:17;;;;;;;40.90;7.88;;;;;;;;;;4873418;29;20514;-80
2021/12/24 08:17:43;;;;;;;31.05;8.52;;;;;;;;;;4885142;29;20029;-81
2021/12/24 08:20:10;;;;;;;22.92;6.43;;;;;;;;;;4875370;29;20032;-81
2021/12/24 08:22:36;;;;;;;25.45;6.50;;;;;;;;;;4874213;29;20033;-81
2021/12/24 08:25:05;;;;;;;26.40;9.55;;;;;;;;;;4885624;29;20465;-80
2021/12/24 08:27:31;;;;;;;27.13;7.00;;;;;;;;;;4888000;29;20060;-81
2021/12/24 08:29:57;;;;;;;38.58;8.88;;;;;;;;;;4886839;29;20033;-80
2021/12/24 08:32:23;;;;;;;32.22;9.15;;;;;;;;;;4875795;29;20040;-81
2021/12/24 08:34:52;;;;;;;26.08;7.03;;;;;;;;;;4875209;29;20029;-80
2021/12/24 08:37:18;;;;;;;43.05;10.52;;;;;;;;;;4873615;29;20037;-80
2021/12/24 08:39:44;;;;;;;33.42;7.70;;;;;;;;;;4877407;29;20037;-80
2021/12/24 08:42:10;;;;;;;49.10;9.13;;;;;;;;;;4869375;29;20503;-80
2021/12/24 08:44:37;;;;;;;33.70;8.48;;;;;;;;;;4874954;29;20033;-80
2021/12/24 08:47:04;;;;;;;36.45;8.82;;;;;;;;;;4870650;29;20465;-81
2021/12/24 08:49:37;;;;;;;34.50;7.53;;;;;;;;;;4890658;29;20104;-81
2021/12/24 08:52:04;;;;;;;40.17;8.15;;;;;;;;;;4885534;29;20043;-81
2021/12/24 08:54:30;;;;;;;23.95;5.75;;;;;;;;;;4872745;29;20413;-81
2021/12/24 08:56:56;;;;;;;42.65;7.97;;;;;;;;;;4870058;29;20037;-81
2021/12/24 08:59:23;;;;;;;8.77;4.07;;;;;;;;;;4886286;29;20124;-81
2021/12/24 09:01:49;;;;;;;43.78;10.02;;;;;;;;;;4888811;29;20028;-81
2021/12/24 09:04:16;;;;;;;36.65;8.70;;;;;;;;;;4868840;29;20064;-82
2021/12/24 09:06:42;;;;;;;60.13;12.43;;;;;;;;;;4872695;29;20037;-81
2021/12/24 09:09:10;;;;;;;57.08;10.77;;;;;;;;;;4872465;29;20457;-81
2021/12/24 09:11:37;;;;;;;47.40;11.27;;;;;;;;;;4872311;29;20033;-81
2021/12/24 09:14:03;;;;;;;52.80;10.52;;;;;;;;;;4871961;29;20107;-81
2021/12/24 09:16:29;;;;;;;45.35;11.30;;;;;;;;;;4886434;29;20103;-81
2021/12/24 09:19:01;;;;;;;53.03;12.15;;;;;;;;;;4869937;29;20033;-82
2021/12/24 09:21:28;;;;;;;46.75;12.20;;;;;;;;;;4873681;29;20059;-81
2021/12/24 09:23:57;;;;;;;37.05;7.57;;;;;;;;;;4869294;29;20037;-81
2021/12/24 09:26:28;;;;;;;21.58;5.28;;;;;;;;;;4887431;29;20451;-80
2021/12/24 09:28:55;;;;;;;16.48;4.95;;;;;;;;;;4873916;29;20040;-81
2021/12/24 09:31:21;;;;;;;17.35;4.40;;;;;;;;;;4884749;29;20481;-80
2021/12/24 09:33:47;;;;;;;10.50;3.35;;;;;;;;;;4884094;29;20033;-79
2021/12/24 09:36:13;;;;;;;12.95;3.70;;;;;;;;;;4868239;29;20656;-80
2021/12/24 09:38:39;;;;;;;9.55;3.40;;;;;;;;;;4889240;29;20033;-80
2021/12/24 09:41:05;;;;;;;6.68;3.15;;;;;;;;;;4886799;29;20553;-80
2021/12/24 09:43:31;;;;;;;12.18;4.68;;;;;;;;;;4874634;29;21174;-80
2021/12/24 09:45:57;;;;;;;10.40;3.33;;;;;;;;;;4891341;29;20521;-80
2021/12/24 09:48:23;;;;;;;13.52;4.43;;;;;;;;;;4874376;29;20068;-81
2021/12/24 09:50:50;;;;;;;15.95;5.13;;;;;;;;;;4870988;29;20048;-81
2021/12/24 09:53:16;;;;;;;15.65;4.65;;;;;;;;;;4867378;29;20620;-80
2021/12/24 09:55:42;;;;;;;18.40;5.25;;;;;;;;;;4872327;29;20489;-80
2021/12/24 09:58:08;;;;;;;14.45;4.85;;;;;;;;;;4885350;29;20044;-80
2021/12/24 10:00:34;;;;;;;18.85;5.03;;;;;;;;;;4872347;29;20056;-80
2021/12/24 10:03:00;;;;;;;22.48;6.35;;;;;;;;;;4883339;29;20036;-81
2021/12/24 10:05:36;;;;;;;21.73;5.63;;;;;;;;;;4869026;29;20152;-81
2021/12/24 10:08:04;;;;;;;20.23;5.10;;;;;;;;;;4882821;29;20052;-81
2021/12/24 10:10:31;;;;;;;16.45;4.85;;;;;;;;;;4884465;29;20109;-81
2021/12/24 10:13:18;;;;;;;21.88;5.60;;;;;;;;;;4881820;29;20124;-81
2021/12/24 10:15:57;;;;;;;24.52;5.18;;;;;;;;;;4861202;29;20453;-80
2021/12/24 10:18:37;;;;;;;16.02;4.55;;;;;;;;;;4884771;29;20436;-81
2021/12/24 10:21:06;;;;;;;14.98;4.97;;;;;;;;;;4886081;29;20039;-81
2021/12/24 10:23:44;;;;;;;17.55;5.28;;;;;;;;;;4866270;29;20037;-81
2021/12/24 10:26:31;;;;;;;13.23;4.40;;;;;;;;;;4884217;29;20059;-81
2021/12/24 10:28:58;;;;;;;12.93;4.88;;;;;;;;;;4884432;29;20516;-81
2021/12/24 10:31:27;;;;;;;14.38;4.57;;;;;;;;;;4871157;29;20029;-81
2021/12/24 10:34:05;;;;;;;11.55;3.92;;;;;;;;;;4884221;29;20497;-81
2021/12/24 10:36:31;;;;;;;14.25;5.47;;;;;;;;;;4884365;29;20028;-80
2021/12/24 10:38:57;;;;;;;15.10;4.53;;;;;;;;;;4871002;29;20024;-80
2021/12/24 10:41:25;;;;;;;17.17;4.82;;;;;;;;;;4887057;29;20029;-81
2021/12/24 10:43:52;;;;;;;12.35;4.30;;;;;;;;;;4869367;29;20407;-81
2021/12/24 10:46:24;;;;;;;18.83;6.07;;;;;;;;;;4884014;29;20441;-80
2021/12/24 10:49:16;;;;;;;19.42;5.47;;;;;;;;;;4875745;29;20040;-81
2021/12/24 10:51:58;;;;;;;15.23;5.20;;;;;;;;;;4866707;29;20477;-81
2021/12/24 10:54:24;;;;;;;15.32;5.10;;;;;;;;;;4872258;29;20037;-81
2021/12/24 10:56:50;;;;;;;17.05;5.78;;;;;;;;;;4866167;29;20036;-81
2021/12/24 10:59:16;;;;;;;17.85;5.65;;;;;;;;;;4884301;29;20025;-81
2021/12/24 11:01:42;;;;;;;18.33;5.88;;;;;;;;;;4888544;29;20396;-81
2021/12/24 11:04:08;;;;;;;17.23;5.38;;;;;;;;;;4868428;29;20037;-83
2021/12/24 11:06:34;;;;;;;20.10;5.78;;;;;;;;;;4885655;29;20091;-81
2021/12/24 11:09:00;;;;;;;16.95;5.32;;;;;;;;;;4871795;29;20492;-81
2021/12/24 11:11:35;;;;;;;18.48;4.90;;;;;;;;;;4865489;29;20036;-81
2021/12/24 11:14:01;;;;;;;17.85;5.78;;;;;;;;;;4868908;29;20033;-81
2021/12/24 11:16:27;;;;;;;14.48;5.07;;;;;;;;;;4870641;29;20371;-81
2021/12/24 11:18:56;;;;;;;14.35;5.75;;;;;;;;;;4870812;29;20470;-81
2021/12/24 11:21:24;;;;;;;20.17;5.18;;;;;;;;;;4885956;29;20036;-81
2021/12/24 11:23:50;;;;;;;13.95;4.65;;;;;;;;;;4885055;29;20493;-81
2021/12/24 11:26:18;;;;;;;14.13;5.68;;;;;;;;;;4887076;29;20033;-81
2021/12/24 11:28:44;;;;;;;15.73;5.32;;;;;;;;;;4876354;29;20033;-81
2021/12/24 11:31:31;;;;;;;16.83;4.82;;;;;;;;;;4871167;29;20032;-81
2021/12/24 11:34:01;;;;;;;12.40;5.38;;;;;;;;;;4887209;29;20111;-81
2021/12/24 11:36:29;;;;;;;15.05;5.70;;;;;;;;;;4876716;29;20389;-81
2021/12/24 11:38:59;;;;;;;20.48;5.32;;;;;;;;;;4875093;29;20096;-81
2021/12/24 11:41:26;;;;;;;17.42;4.82;;;;;;;;;;4893204;29;20033;-81
2021/12/24 11:43:54;;;;;;;14.55;5.45;;;;;;;;;;4875756;29;20536;-81
2021/12/24 11:46:22;;;;;;;13.98;5.75;;;;;;;;;;4890541;29;20033;-81
2021/12/24 11:49:02;;;;;;;25.92;5.68;;;;;;;;;;4875818;28;20416;-82
2021/12/24 11:51:29;;;;;;;14.95;5.43;;;;;;;;;;4892512;29;20032;-82
2021/12/24 11:54:01;;;;;;;24.70;6.93;;;;;;;;;;4875522;29;20028;-81
2021/12/24 11:56:27;;;;;;;16.17;7.10;;;;;;;;;;4871135;29;20021;-81
2021/12/24 11:58:55;;;;;;;20.00;7.32;;;;;;;;;;4891029;29;20092;-81
2021/12/24 12:01:25;;;;;;;17.92;6.22;;;;;;;;;;4875736;29;20036;-81
2021/12/24 12:03:52;;;;;;;14.40;4.85;;;;;;;;;;4872444;29;20297;-81
2021/12/24 12:06:24;;;;;;;14.07;4.82;;;;;;;;;;4874651;29;20081;-81
2021/12/24 12:08:59;;;;;;;15.70;4.80;;;;;;;;;;4891741;29;20116;-81
2021/12/24 12:11:26;;;;;;;10.52;4.57;;;;;;;;;;4871625;29;20044;-81
2021/12/24 12:13:52;;;;;;;17.33;5.53;;;;;;;;;;4888015;29;20831;-81
2021/12/24 12:16:18;;;;;;;14.50;4.60;;;;;;;;;;4877719;29;20036;-81
2021/12/24 12:19:04;;;;;;;19.10;5.28;;;;;;;;;;4875948;29;20043;-82
2021/12/24 12:21:42;;;;;;;14.65;5.25;;;;;;;;;;4878418;29;20120;-81
2021/12/24 12:26:43;;;;;;;14.73;4.80;;;;;;;;;;4889912;29;20408;-81
2021/12/24 12:29:23;;;;;;;17.75;5.35;;;;;;;;;;4871974;29;20344;-81
2021/12/24 12:31:55;;;;;;;15.52;5.63;;;;;;;;;;4869074;29;20040;-82
2021/12/24 12:34:39;;;;;;;17.90;5.75;;;;;;;;;;4885100;29;20029;-81
2021/12/24 12:37:13;;;;;;;10.57;4.53;;;;;;;;;;4888479;29;20484;-82
2021/12/24 12:39:40;;;;;;;17.58;5.32;;;;;;;;;;4890130;29;20025;-81
2021/12/24 12:42:07;;;;;;;13.13;5.53;;;;;;;;;;4872691;29;20029;-82
2021/12/24 12:44:34;;;;;;;17.38;5.85;;;;;;;;;;4875636;29;20041;-81
2021/12/24 12:47:10;;;;;;;12.35;4.93;;;;;;;;;;4872574;29;20555;-81
2021/12/24 12:49:36;;;;;;;18.45;4.95;;;;;;;;;;4891865;28;20127;-82
2021/12/24 12:52:07;;;;;;;15.30;5.43;;;;;;;;;;4873350;29;20052;-82
2021/12/24 12:54:36;;;;;;;15.93;5.53;;;;;;;;;;4867756;29;20059;-82
2021/12/24 12:57:13;;;;;;;12.35;4.88;;;;;;;;;;4887836;29;20507;-84
2021/12/24 12:59:39;;;;;;;13.00;5.28;;;;;;;;;;4872722;29;20074;-81
2021/12/24 13:02:05;;;;;;;11.10;5.32;;;;;;;;;;4878194;29;20507;-81
2021/12/24 13:04:31;;;;;;;12.15;5.53;;;;;;;;;;4869393;29;20028;-81
2021/12/24 13:06:58;;;;;;;13.15;5.22;;;;;;;;;;4875152;29;20068;-81
2021/12/24 13:09:33;;;;;;;10.20;4.90;;;;;;;;;;4870020;29;20067;-82
2021/12/24 13:12:01;;;;;;;13.07;4.88;;;;;;;;;;4866853;29;20119;-82
2021/12/24 13:14:28;;;;;;;21.02;5.00;;;;;;;;;;4873836;29;20503;-82
2021/12/24 13:20:07;;;;;;;14.13;5.25;;;;;;;;;;4888257;29;20044;-81
2021/12/24 13:22:32;;;;;;;11.70;4.80;;;;;;;;;;4884049;29;20429;-81
2021/12/24 13:24:59;;;;;;;13.18;5.20;;;;;;;;;;4881218;29;20064;-83
2021/12/24 13:27:27;;;;;;;16.35;5.57;;;;;;;;;;4887068;29;20155;-81
2021/12/24 13:30:11;;;;;;;13.30;6.18;;;;;;;;;;4874092;29;20042;-82
2021/12/24 13:32:40;;;;;;;12.35;5.32;;;;;;;;;;4871794;29;20497;-82
2021/12/24 13:35:06;;;;;;;20.27;6.68;;;;;;;;;;4887473;29;20720;-81
2021/12/24 13:37:33;;;;;;;8.48;3.47;;;;;;;;;;4874103;29;20029;-82
2021/12/24 13:39:59;;;;;;;19.33;5.30;;;;;;;;;;4889064;29;20051;-83
2021/12/24 13:42:25;;;;;;;14.38;5.28;;;;;;;;;;4885764;29;20075;-82
2021/12/24 13:44:59;;;;;;;11.50;4.85;;;;;;;;;;4872532;29;20028;-82
2021/12/24 13:47:41;;;;;;;16.23;5.40;;;;;;;;;;4882313;29;20521;-81
2021/12/24 13:55:20;;;;;;;22.73;6.67;;;;;;;;;;4887451;29;20043;-81
2021/12/24 13:57:57;;;;;;;18.23;6.05;;;;;;;;;;4872925;29;20024;-81
2021/12/24 14:00:24;;;;;;;13.65;5.22;;;;;;;;;;4886656;29;20032;-82
2021/12/24 14:02:51;;;;;;;14.45;5.90;;;;;;;;;;4873482;29;20044;-83
2021/12/24 14:05:18;;;;;;;14.38;6.22;;;;;;;;;;4888281;29;20036;-82
2021/12/24 14:07:47;;;;;;;14.65;5.57;;;;;;;;;;4874719;29;20147;-81
2021/12/24 14:10:25;;;;;;;21.05;7.13;;;;;;;;;;4883894;29;20056;-83
2021/12/24 14:12:51;;;;;;;18.95;6.82;;;;;;;;;;4888919;29;20443;-81
2021/12/24 14:15:22;;;;;;;14.68;6.20;;;;;;;;;;4884569;29;20025;-81
2021/12/24 14:18:19;;;;;;;21.55;6.45;;;;;;;;;;4873816;29;20052;-81
2021/12/24 14:21:45;;;;;;;15.88;4.97;;;;;;;;;;4866762;29;20401;-82
2021/12/24 14:24:04;;;;;;;17.48;6.75;;;;;;;;;;4882328;29;20061;-81
2021/12/24 14:26:37;;;;;;;17.02;6.13;;;;;;;;;;4889384;29;20025;-81
2021/12/24 14:29:05;;;;;;;7.75;4.13;;;;;;;;;;4884905;29;20029;-82
2021/12/24 14:31:52;;;;;;;2.13;1.52;;;;;;;;;;4887984;29;20047;-82
2021/12/24 14:34:37;;;;;;;8.15;2.95;;;;;;;;;;4869387;29;20036;-82
2021/12/24 14:37:18;;;;;;;7.95;2.80;;;;;;;;;;4875181;29;20040;-82
2021/12/24 14:39:46;;;;;;;7.45;2.70;;;;;;;;;;4872278;29;20282;-82
2021/12/24 14:42:15;;;;;;;8.90;2.83;;;;;;;;;;4867638;29;20043;-81
2021/12/24 14:44:42;;;;;;;6.28;2.08;;;;;;;;;;4887293;29;20450;-82
2021/12/24 14:47:09;;;;;;;4.40;2.53;;;;;;;;;;4868285;29;20119;-82
2021/12/24 14:49:36;;;;;;;5.57;1.85;;;;;;;;;;4874925;29;20044;-82
2021/12/24 14:52:18;;;;;;;4.28;1.92;;;;;;;;;;4873952;29;20033;-82
2021/12/24 14:55:03;;;;;;;13.43;3.88;;;;;;;;;;4869967;29;20100;-82
2021/12/24 14:57:29;;;;;;;8.23;1.95;;;;;;;;;;4886115;29;20040;-81
2021/12/24 14:59:55;;;;;;;5.28;1.75;;;;;;;;;;4872747;29;20339;-83
2021/12/24 15:02:21;;;;;;;11.40;2.35;;;;;;;;;;4886540;29;20437;-82
2021/12/24 15:04:56;;;;;;;11.57;2.53;;;;;;;;;;4873316;29;20032;-82
2021/12/24 15:07:30;;;;;;;12.65;3.55;;;;;;;;;;4886680;29;20036;-82
2021/12/24 15:10:12;;;;;;;11.50;2.40;;;;;;;;;;4867676;29;20036;-82
2021/12/24 15:12:50;;;;;;;9.30;1.58;;;;;;;;;;4883963;29;20442;-82
2021/12/24 15:15:19;;;;;;;6.10;2.05;;;;;;;;;;4886055;29;20055;-82
2021/12/24 15:17:46;;;;;;;8.98;2.60;;;;;;;;;;4867930;29;20119;-83
2021/12/24 15:20:13;;;;;;;5.00;1.98;;;;;;;;;;4873755;29;20084;-82
2021/12/24 15:22:39;;;;;;;11.45;1.90;;;;;;;;;;4871717;29;20127;-81
2021/12/24 15:25:06;;;;;;;9.43;2.55;;;;;;;;;;4868444;29;20573;-81
2021/12/24 15:27:35;;;;;;;10.65;2.15;;;;;;;;;;4886079;29;20092;-82
2021/12/24 15:30:03;;;;;;;12.18;2.05;;;;;;;;;;4869694;29;20039;-81
2021/12/24 15:32:29;;;;;;;9.27;1.75;;;;;;;;;;4874141;29;20515;-81
2021/12/24 15:34:55;;;;;;;11.30;1.95;;;;;;;;;;4870008;29;20567;-82
2021/12/24 15:37:21;;;;;;;5.15;1.40;;;;;;;;;;4876839;29;20436;-83
2021/12/24 15:39:47;;;;;;;10.10;1.67;;;;;;;;;;4887636;29;20115;-82
2021/12/24 15:42:15;;;;;;;15.95;2.33;;;;;;;;;;4869420;29;20154;-82
2021/12/24 15:44:45;;;;;;;12.75;2.50;;;;;;;;;;4874511;29;20036;-82
2021/12/24 15:47:11;;;;;;;12.18;3.78;;;;;;;;;;4865709;29;20036;-82
2021/12/24 15:49:38;;;;;;;23.10;3.38;;;;;;;;;;4871841;28;20527;-82
2021/12/24 15:52:04;;;;;;;14.90;3.95;;;;;;;;;;4865326;29;20068;-82
2021/12/24 15:54:31;;;;;;;21.88;4.45;;;;;;;;;;4872540;29;20045;-81
2021/12/24 15:56:57;;;;;;;19.67;4.32;;;;;;;;;;4866256;29;20024;-82
2021/12/24 15:59:24;;;;;;;28.17;4.32;;;;;;;;;;4884654;29;20474;-82
2021/12/24 16:01:50;;;;;;;43.78;7.45;;;;;;;;;;4867526;29;20040;-82
2021/12/24 16:04:24;;;;;;;34.35;9.30;;;;;;;;;;4882464;29;20402;-82
2021/12/24 16:06:50;;;;;;;45.63;10.27;;;;;;;;;;4886069;29;20060;-82
2021/12/24 16:09:20;;;;;;;52.63;13.55;;;;;;;;;;4868938;29;20075;-82
2021/12/24 16:11:47;;;;;;;41.33;10.73;;;;;;;;;;4887626;29;20148;-83
2021/12/24 16:14:13;;;;;;;54.65;11.65;;;;;;;;;;4885004;29;20037;-82
2021/12/24 16:16:44;;;;;;;47.88;10.88;;;;;;;;;;4876321;29;20030;-82
2021/12/24 16:19:10;;;;;;;55.28;11.40;;;;;;;;;;4871735;29;20029;-82
2021/12/24 16:21:37;;;;;;;60.13;11.88;;;;;;;;;;4872668;29;20039;-82